< < Back
Terminal Aerodrome Forecast


Current Version              Previous Versions:   1  2  3  4  5  6  7  8  9  

Terminal Aerodrome Forecast

055
FTUS42 KGSP 211100
TAFAND
TAF
KAND 211121Z 2112/2212 00000KT 2SM BR SKC
     FM211300 29003KT P6SM FEW250
     FM211800 29009G18KT P6SM FEW050 FEW250
     FM220000 30006KT P6SM FEW250=

Latest METAR

275
SAUS70 KWBC 212000 RRG
MTRAND
METAR KAND 211956Z AUTO 26010KT 10SM CLR 23/07 A2989 RMK AO2 SLP115
T02330072


USA.gov is the U.S. government's official web portal to all federal, state and local government web resources and services.